createdAt,value
2019-02-27T00:00:15.551Z,1016.12
2019-02-27T00:01:17.087Z,1016.06
2019-02-27T00:02:15.529Z,1016.07
2019-02-27T00:03:15.528Z,1016.05
2019-02-27T00:04:15.502Z,1016.07
2019-02-27T00:05:15.494Z,1016.07
2019-02-27T00:06:16.044Z,1016.04
2019-02-27T00:07:15.500Z,1015.98
2019-02-27T00:08:15.487Z,1015.97
2019-02-27T00:09:15.492Z,1015.96
2019-02-27T00:10:15.439Z,1016.00
2019-02-27T00:11:15.431Z,1015.98
2019-02-27T00:12:16.993Z,1015.98
2019-02-27T00:13:15.408Z,1016.01
2019-02-27T00:14:15.419Z,1016.02
2019-02-27T00:15:15.400Z,1016.00
2019-02-27T00:16:15.374Z,1016.03
2019-02-27T00:17:18.095Z,1016.03
2019-02-27T00:18:15.352Z,1016.00
2019-02-27T00:19:15.348Z,1015.99
2019-02-27T00:20:15.361Z,1016.01
2019-02-27T00:21:15.325Z,1015.94
2019-02-27T00:22:17.685Z,1015.95
2019-02-27T00:23:15.304Z,1015.90
2019-02-27T00:24:15.291Z,1015.84
2019-02-27T00:25:15.299Z,1015.87
2019-02-27T00:26:15.279Z,1015.84
2019-02-27T00:27:15.311Z,1015.82
2019-02-27T00:28:15.336Z,1015.87
2019-02-27T00:29:15.279Z,1015.86
2019-02-27T00:30:15.241Z,1015.88
2019-02-27T00:31:15.220Z,1015.83
2019-02-27T00:32:15.769Z,1015.84
2019-02-27T00:33:15.195Z,1015.86
2019-02-27T00:34:15.291Z,1015.81
2019-02-27T00:35:15.194Z,1015.79
2019-02-27T00:36:15.242Z,1015.81
2019-02-27T00:37:18.709Z,1015.78
2019-02-27T00:38:15.234Z,1015.80
2019-02-27T00:39:15.153Z,1015.79
2019-02-27T00:40:15.119Z,1015.76
2019-02-27T00:41:15.135Z,1015.81
2019-02-27T00:42:19.485Z,1015.74
2019-02-27T00:43:16.168Z,1015.74
2019-02-27T00:44:15.077Z,1015.71
2019-02-27T00:45:15.106Z,1015.67
2019-02-27T00:46:15.058Z,1015.65
2019-02-27T00:47:17.081Z,1015.65
2019-02-27T00:48:15.035Z,1015.62
2019-02-27T00:49:15.022Z,1015.60
2019-02-27T00:50:15.009Z,1015.61
2019-02-27T00:51:15.006Z,1015.62
2019-02-27T00:52:18.070Z,1015.63
2019-02-27T00:53:14.997Z,1015.62
2019-02-27T00:54:14.967Z,1015.57
2019-02-27T00:55:14.983Z,1015.60
2019-02-27T00:56:14.951Z,1015.56
2019-02-27T00:57:15.251Z,1015.53
2019-02-27T00:58:14.956Z,1015.54
2019-02-27T00:59:14.928Z,1015.52
2019-02-27T01:00:14.939Z,1015.54
2019-02-27T01:01:14.902Z,1015.54
2019-02-27T01:02:14.932Z,1015.56
2019-02-27T01:03:14.886Z,1015.56
2019-02-27T01:04:14.890Z,1015.55
2019-02-27T01:05:14.855Z,1015.56
2019-02-27T01:06:15.367Z,1015.53
2019-02-27T01:07:14.832Z,1015.50
2019-02-27T01:08:14.856Z,1015.51
2019-02-27T01:09:14.813Z,1015.50
2019-02-27T01:10:14.849Z,1015.50
2019-02-27T01:11:18.124Z,1015.46
2019-02-27T01:12:14.779Z,1015.53
2019-02-27T01:13:14.770Z,1015.50
2019-02-27T01:14:14.756Z,1015.44
2019-02-27T01:15:14.751Z,1015.49
2019-02-27T01:16:16.973Z,1015.51
2019-02-27T01:17:14.792Z,1015.48
2019-02-27T01:18:14.719Z,1015.47
2019-02-27T01:19:14.746Z,1015.41
2019-02-27T01:20:14.701Z,1015.46
2019-02-27T01:21:19.220Z,1015.43
2019-02-27T01:22:15.704Z,1015.41
2019-02-27T01:23:14.726Z,1015.43
2019-02-27T01:24:14.997Z,1015.42
2019-02-27T01:25:14.881Z,1015.39
2019-02-27T01:26:14.664Z,1015.42
2019-02-27T01:27:14.626Z,1015.38
2019-02-27T01:28:14.610Z,1015.44
2019-02-27T01:29:15.742Z,1015.42
2019-02-27T01:30:14.597Z,1015.42
2019-02-27T01:31:14.573Z,1015.41
2019-02-27T01:32:14.588Z,1015.39
2019-02-27T01:33:14.562Z,1015.37
2019-02-27T01:34:14.542Z,1015.37
2019-02-27T01:35:17.893Z,1015.32
2019-02-27T01:36:14.531Z,1015.29
2019-02-27T01:37:14.585Z,1015.26
2019-02-27T01:38:14.548Z,1015.25
2019-02-27T01:39:14.489Z,1015.22
2019-02-27T01:40:17.417Z,1015.25
2019-02-27T01:41:14.473Z,1015.20
2019-02-27T01:42:14.464Z,1015.16
2019-02-27T01:43:14.467Z,1015.19
2019-02-27T01:44:14.448Z,1015.17
2019-02-27T01:45:14.428Z,1015.17
2019-02-27T01:46:14.436Z,1015.17
2019-02-27T01:47:14.411Z,1015.13
2019-02-27T01:48:14.398Z,1015.12
2019-02-27T01:49:16.084Z,1015.12
2019-02-27T01:50:14.382Z,1015.04
2019-02-27T01:51:14.387Z,1015.11
2019-02-27T01:52:14.380Z,1015.08
2019-02-27T01:53:14.345Z,1015.05
2019-02-27T01:54:15.001Z,1015.04
2019-02-27T01:55:14.352Z,1015.03
2019-02-27T01:56:14.315Z,1014.98
2019-02-27T01:57:14.329Z,1014.95
2019-02-27T01:58:14.287Z,1014.97
2019-02-27T01:59:16.889Z,1014.97
2019-02-27T02:00:14.272Z,1014.91
2019-02-27T02:01:14.278Z,1014.90
2019-02-27T02:02:14.278Z,1014.91
2019-02-27T02:03:14.362Z,1014.89
2019-02-27T02:04:14.226Z,1014.89
2019-02-27T02:05:14.236Z,1014.88
2019-02-27T02:06:14.215Z,1014.88
2019-02-27T02:07:14.216Z,1014.84
2019-02-27T02:08:14.660Z,1014.83
2019-02-27T02:09:14.176Z,1014.85
2019-02-27T02:10:14.186Z,1014.76
2019-02-27T02:11:14.149Z,1014.75
2019-02-27T02:12:14.212Z,1014.76
2019-02-27T02:13:15.161Z,1014.70
2019-02-27T02:14:14.214Z,1014.68
2019-02-27T02:15:14.129Z,1014.67
2019-02-27T02:16:14.099Z,1014.62
2019-02-27T02:17:14.088Z,1014.60
2019-02-27T02:18:14.501Z,1014.59
2019-02-27T02:19:14.071Z,1014.58
2019-02-27T02:20:14.058Z,1014.54
2019-02-27T02:21:14.055Z,1014.53
2019-02-27T02:22:14.225Z,1014.53
2019-02-27T02:23:14.743Z,1014.49
2019-02-27T02:24:14.052Z,1014.45
2019-02-27T02:25:14.000Z,1014.47
2019-02-27T02:26:13.992Z,1014.46
2019-02-27T02:27:13.983Z,1014.48
2019-02-27T02:28:14.667Z,1014.43
2019-02-27T02:29:13.959Z,1014.41
2019-02-27T02:30:13.971Z,1014.38
2019-02-27T02:31:13.964Z,1014.35
2019-02-27T02:32:16.822Z,1014.38
2019-02-27T02:33:13.922Z,1014.31
2019-02-27T02:34:13.928Z,1014.29
2019-02-27T02:35:15.807Z,1014.29
2019-02-27T02:36:13.884Z,1014.28
2019-02-27T02:37:13.873Z,1014.30
2019-02-27T02:38:14.126Z,1014.29
2019-02-27T02:39:18.087Z,1014.27
2019-02-27T02:40:14.848Z,1014.28
2019-02-27T02:41:13.869Z,1014.29
2019-02-27T02:42:13.824Z,1014.22
2019-02-27T02:43:13.812Z,1014.24
2019-02-27T02:44:13.824Z,1014.19
2019-02-27T02:45:13.794Z,1014.22
2019-02-27T02:46:13.783Z,1014.24
2019-02-27T02:47:20.040Z,1014.22
2019-02-27T02:48:14.766Z,1014.28
2019-02-27T02:49:13.749Z,1014.27
2019-02-27T02:50:17.372Z,1014.29
2019-02-27T02:51:13.725Z,1014.26
2019-02-27T02:52:13.734Z,1014.30
2019-02-27T02:53:13.722Z,1014.24
2019-02-27T02:54:13.692Z,1014.16
2019-02-27T02:55:13.728Z,1014.22
2019-02-27T02:56:13.693Z,1014.16
2019-02-27T02:57:13.672Z,1014.14
2019-02-27T02:58:13.663Z,1014.17
2019-02-27T02:59:13.700Z,1014.13
2019-02-27T03:00:13.656Z,1014.11
2019-02-27T03:01:15.256Z,1014.08
2019-02-27T03:02:13.650Z,1014.11
2019-02-27T03:03:13.598Z,1014.09
2019-02-27T03:04:13.729Z,1014.06
2019-02-27T03:05:13.578Z,1014.05
2019-02-27T03:06:13.600Z,1014.03
2019-02-27T03:07:13.574Z,1014.03
2019-02-27T03:08:19.780Z,1014.01
2019-02-27T03:09:14.544Z,1014.02
2019-02-27T03:10:13.557Z,1013.96
2019-02-27T03:11:17.745Z,1013.99
2019-02-27T03:12:14.520Z,1013.98
2019-02-27T03:13:13.493Z,1013.99
2019-02-27T03:14:17.276Z,1013.97
2019-02-27T03:15:13.479Z,1013.99
2019-02-27T03:16:13.509Z,1013.93
2019-02-27T03:17:17.911Z,1013.92
2019-02-27T03:18:14.434Z,1013.92
2019-02-27T03:19:13.456Z,1013.90
2019-02-27T03:20:16.795Z,1013.88
2019-02-27T03:21:13.414Z,1013.89
2019-02-27T03:22:13.403Z,1013.89
2019-02-27T03:23:15.570Z,1013.91
2019-02-27T03:24:13.398Z,1013.91
2019-02-27T03:25:13.363Z,1013.93
2019-02-27T03:26:16.499Z,1013.90
2019-02-27T03:27:13.347Z,1013.88
2019-02-27T03:28:13.335Z,1013.85
2019-02-27T03:29:16.902Z,1013.81
2019-02-27T03:30:13.315Z,1013.83
2019-02-27T03:31:18.487Z,1013.78
2019-02-27T03:32:14.290Z,1013.77
2019-02-27T03:33:22.695Z,1013.79
2019-02-27T03:34:14.326Z,1013.80
2019-02-27T03:35:13.255Z,1013.78
2019-02-27T03:36:13.247Z,1013.72
2019-02-27T03:37:14.175Z,1013.74
2019-02-27T03:38:13.267Z,1013.74
2019-02-27T03:39:13.235Z,1013.76
2019-02-27T03:40:13.245Z,1013.72
2019-02-27T03:41:13.200Z,1013.66
2019-02-27T03:42:13.256Z,1013.64
2019-02-27T03:43:13.174Z,1013.64
2019-02-27T03:44:13.270Z,1013.62
2019-02-27T03:45:13.152Z,1013.65
2019-02-27T03:46:13.162Z,1013.57
2019-02-27T03:47:16.777Z,1013.57
2019-02-27T03:48:13.255Z,1013.55
2019-02-27T03:49:13.109Z,1013.59
2019-02-27T03:50:15.046Z,1013.59
2019-02-27T03:51:13.102Z,1013.60
2019-02-27T03:52:13.082Z,1013.59
2019-02-27T03:53:13.067Z,1013.65
2019-02-27T03:54:13.087Z,1013.59
2019-02-27T03:55:13.148Z,1013.63
2019-02-27T03:56:13.037Z,1013.63
2019-02-27T03:57:18.984Z,1013.58
2019-02-27T03:58:14.008Z,1013.56
2019-02-27T03:59:13.007Z,1013.56
2019-02-27T04:00:17.978Z,1013.53
2019-02-27T04:01:13.998Z,1013.53
2019-02-27T04:02:12.974Z,1013.52
2019-02-27T04:03:17.127Z,1013.53
2019-02-27T04:04:13.973Z,1013.53
2019-02-27T04:05:12.945Z,1013.49
2019-02-27T04:06:12.932Z,1013.52
2019-02-27T04:07:12.915Z,1013.46
2019-02-27T04:08:12.905Z,1013.45
2019-02-27T04:09:18.570Z,1013.43
2019-02-27T04:10:13.898Z,1013.45
2019-02-27T04:11:12.877Z,1013.41
2019-02-27T04:12:16.196Z,1013.35
2019-02-27T04:13:12.855Z,1013.33
2019-02-27T04:14:12.872Z,1013.36
2019-02-27T04:15:17.715Z,1013.36
2019-02-27T04:16:13.821Z,1013.36
2019-02-27T04:17:12.816Z,1013.39
2019-02-27T04:18:12.797Z,1013.38
2019-02-27T04:19:12.796Z,1013.36
2019-02-27T04:20:15.474Z,1013.32
2019-02-27T04:21:12.769Z,1013.35
2019-02-27T04:22:12.755Z,1013.38
2019-02-27T04:23:12.937Z,1013.34
2019-02-27T04:24:12.739Z,1013.34
2019-02-27T04:25:12.757Z,1013.39
2019-02-27T04:26:12.720Z,1013.34
2019-02-27T04:27:12.702Z,1013.38
2019-02-27T04:28:12.696Z,1013.31
2019-02-27T04:29:12.690Z,1013.30
2019-02-27T04:30:14.968Z,1013.33
2019-02-27T04:31:12.699Z,1013.33
2019-02-27T04:32:13.298Z,1013.31
2019-02-27T04:33:12.644Z,1013.31
2019-02-27T04:34:12.654Z,1013.28
2019-02-27T04:35:12.618Z,1013.26
2019-02-27T04:36:13.390Z,1013.25
2019-02-27T04:37:12.601Z,1013.24
2019-02-27T04:38:12.618Z,1013.23
2019-02-27T04:39:12.574Z,1013.19
2019-02-27T04:40:12.576Z,1013.25
2019-02-27T04:41:12.555Z,1013.25
2019-02-27T04:42:12.542Z,1013.17
2019-02-27T04:43:12.539Z,1013.22
2019-02-27T04:44:12.543Z,1013.21
2019-02-27T04:45:13.129Z,1013.22
2019-02-27T04:46:12.508Z,1013.19
2019-02-27T04:47:12.491Z,1013.23
2019-02-27T04:48:12.482Z,1013.24
2019-02-27T04:49:12.493Z,1013.28
2019-02-27T04:50:12.457Z,1013.24
2019-02-27T04:51:16.865Z,1013.25
2019-02-27T04:52:13.439Z,1013.24
2019-02-27T04:53:12.426Z,1013.26
2019-02-27T04:54:12.413Z,1013.31
2019-02-27T04:55:13.080Z,1013.34
2019-02-27T04:56:12.395Z,1013.32
2019-02-27T04:57:12.388Z,1013.31
2019-02-27T04:58:12.379Z,1013.32
2019-02-27T04:59:12.359Z,1013.35
2019-02-27T05:00:12.351Z,1013.32
2019-02-27T05:01:12.360Z,1013.32
2019-02-27T05:02:14.651Z,1013.33
2019-02-27T05:03:12.346Z,1013.27
2019-02-27T05:04:12.309Z,1013.23
2019-02-27T05:05:12.299Z,1013.32
2019-02-27T05:06:14.484Z,1013.28
2019-02-27T05:07:12.278Z,1013.31
2019-02-27T05:08:12.269Z,1013.28
2019-02-27T05:09:12.796Z,1013.20
2019-02-27T05:10:12.247Z,1013.25
2019-02-27T05:11:14.166Z,1013.22
2019-02-27T05:12:12.221Z,1013.22
2019-02-27T05:13:12.210Z,1013.20
2019-02-27T05:14:12.209Z,1013.22
2019-02-27T05:15:12.194Z,1013.21
2019-02-27T05:16:14.179Z,1013.17
2019-02-27T05:17:12.187Z,1013.19
2019-02-27T05:18:12.161Z,1013.15
2019-02-27T05:19:12.143Z,1013.14
2019-02-27T05:20:12.694Z,1013.13
2019-02-27T05:21:12.124Z,1013.11
2019-02-27T05:22:12.128Z,1013.09
2019-02-27T05:23:12.115Z,1013.08
2019-02-27T05:24:12.093Z,1013.05
2019-02-27T05:25:14.385Z,1013.10
2019-02-27T05:26:12.069Z,1013.08
2019-02-27T05:27:12.080Z,1013.07
2019-02-27T05:28:12.049Z,1013.08
2019-02-27T05:29:12.039Z,1013.05
2019-02-27T05:30:12.810Z,1013.00
2019-02-27T05:31:12.016Z,1013.03
2019-02-27T05:32:12.025Z,1013.00
2019-02-27T05:33:11.995Z,1013.02
2019-02-27T05:34:13.480Z,1013.02
2019-02-27T05:35:11.985Z,1013.00
2019-02-27T05:36:11.965Z,1012.96
2019-02-27T05:37:11.971Z,1012.95
2019-02-27T05:38:11.967Z,1012.93
2019-02-27T05:39:11.927Z,1012.96
2019-02-27T05:40:11.918Z,1012.90
2019-02-27T05:41:11.910Z,1012.90
2019-02-27T05:42:13.207Z,1012.88
2019-02-27T05:43:13.873Z,1012.91
2019-02-27T05:44:11.880Z,1012.86
2019-02-27T05:45:11.866Z,1012.98
2019-02-27T05:46:11.852Z,1012.94
2019-02-27T05:47:11.997Z,1012.93
2019-02-27T05:48:11.835Z,1012.92
2019-02-27T05:49:11.862Z,1012.98
2019-02-27T05:50:11.816Z,1012.98
2019-02-27T05:51:11.800Z,1013.00
2019-02-27T05:52:14.263Z,1012.98
2019-02-27T05:53:11.782Z,1012.98
2019-02-27T05:54:11.782Z,1013.00
2019-02-27T05:55:11.764Z,1013.00
2019-02-27T05:56:15.477Z,1013.01
2019-02-27T05:57:11.758Z,1013.01
2019-02-27T05:58:11.722Z,1013.03
2019-02-27T05:59:11.719Z,1013.01
2019-02-27T06:00:11.723Z,1013.00
2019-02-27T06:01:11.696Z,1013.03
2019-02-27T06:02:11.703Z,1013.05
2019-02-27T06:03:11.668Z,1013.02
2019-02-27T06:04:11.678Z,1013.07
2019-02-27T06:05:11.650Z,1013.05
2019-02-27T06:06:12.370Z,1013.15
2019-02-27T06:07:11.634Z,1013.13
2019-02-27T06:08:11.650Z,1013.14
2019-02-27T06:09:11.633Z,1013.16
2019-02-27T06:10:11.694Z,1013.15
2019-02-27T06:11:11.608Z,1013.17
2019-02-27T06:12:11.575Z,1013.17
2019-02-27T06:13:14.067Z,1013.15
2019-02-27T06:14:11.564Z,1013.14
2019-02-27T06:15:11.543Z,1013.07
2019-02-27T06:16:11.538Z,1013.10
2019-02-27T06:17:12.858Z,1013.15
2019-02-27T06:18:11.554Z,1013.09
2019-02-27T06:19:11.503Z,1013.11
2019-02-27T06:20:11.490Z,1013.14
2019-02-27T06:21:15.518Z,1013.15
2019-02-27T06:22:11.499Z,1013.15
2019-02-27T06:23:11.453Z,1013.18
2019-02-27T06:24:12.574Z,1013.17
2019-02-27T06:25:12.391Z,1013.16
2019-02-27T06:26:11.420Z,1013.16
2019-02-27T06:27:11.416Z,1013.11
2019-02-27T06:28:11.433Z,1013.12
2019-02-27T06:29:11.421Z,1013.07
2019-02-27T06:30:11.379Z,1013.08
2019-02-27T06:31:11.372Z,1013.04
2019-02-27T06:32:12.359Z,1013.00
2019-02-27T06:33:11.872Z,1013.02
2019-02-27T06:34:11.359Z,1012.98
2019-02-27T06:35:11.325Z,1012.97
2019-02-27T06:36:11.343Z,1012.99
2019-02-27T06:37:15.342Z,1013.01
2019-02-27T06:38:11.294Z,1012.96
2019-02-27T06:39:11.468Z,1012.93
2019-02-27T06:40:11.289Z,1012.92
2019-02-27T06:41:15.378Z,1012.96
2019-02-27T06:42:11.422Z,1013.00
2019-02-27T06:43:11.481Z,1012.97
2019-02-27T06:44:11.251Z,1012.99
2019-02-27T06:45:12.661Z,1013.00
2019-02-27T06:46:11.363Z,1013.01
2019-02-27T06:47:11.272Z,1013.02
2019-02-27T06:48:11.968Z,1013.04
2019-02-27T06:49:11.258Z,1013.03
2019-02-27T06:50:12.037Z,1013.02
2019-02-27T06:51:11.248Z,1012.99
2019-02-27T06:52:11.200Z,1012.98
2019-02-27T06:53:15.629Z,1012.99
2019-02-27T06:54:12.130Z,1013.00
2019-02-27T06:55:13.108Z,1012.99
2019-02-27T06:56:11.108Z,1012.98
2019-02-27T06:57:11.100Z,1012.95
2019-02-27T06:58:14.603Z,1012.99
2019-02-27T06:59:11.126Z,1012.91
2019-02-27T07:00:11.084Z,1012.91
2019-02-27T07:01:13.098Z,1012.93
2019-02-27T07:02:11.085Z,1012.93
2019-02-27T07:03:11.048Z,1012.89
2019-02-27T07:04:11.047Z,1012.93
2019-02-27T07:05:13.446Z,1012.97
2019-02-27T07:06:11.036Z,1012.94
2019-02-27T07:07:11.008Z,1012.93
2019-02-27T07:08:11.037Z,1012.90
2019-02-27T07:09:11.595Z,1012.88
2019-02-27T07:10:11.314Z,1012.90
2019-02-27T07:11:11.313Z,1012.87
2019-02-27T07:12:11.061Z,1012.83
2019-02-27T07:13:10.964Z,1012.86
2019-02-27T07:14:11.432Z,1012.81
2019-02-27T07:15:12.814Z,1012.84
2019-02-27T07:16:10.885Z,1012.81
2019-02-27T07:17:11.091Z,1012.81
2019-02-27T07:18:11.967Z,1012.79
2019-02-27T07:19:13.140Z,1012.74
2019-02-27T07:20:10.877Z,1012.79
2019-02-27T07:21:10.842Z,1012.73
2019-02-27T07:22:12.658Z,1012.73
2019-02-27T07:23:10.869Z,1012.74
2019-02-27T07:24:11.058Z,1012.70
2019-02-27T07:25:11.201Z,1012.67
2019-02-27T07:26:13.236Z,1012.65
2019-02-27T07:27:11.947Z,1012.63
2019-02-27T07:28:11.757Z,1012.63
2019-02-27T07:29:11.131Z,1012.60
2019-02-27T07:30:10.774Z,1012.59
2019-02-27T07:31:12.441Z,1012.59
2019-02-27T07:32:10.789Z,1012.53
2019-02-27T07:33:10.950Z,1012.53
2019-02-27T07:34:14.217Z,1012.59
2019-02-27T07:35:11.151Z,1012.51
2019-02-27T07:36:10.710Z,1012.51
2019-02-27T07:37:12.955Z,1012.54
2019-02-27T07:38:10.883Z,1012.52
2019-02-27T07:39:10.660Z,1012.56
2019-02-27T07:40:10.892Z,1012.52
2019-02-27T07:41:10.639Z,1012.52
2019-02-27T07:42:10.622Z,1012.52
2019-02-27T07:43:10.806Z,1012.60
2019-02-27T07:44:10.716Z,1012.55
2019-02-27T07:45:11.265Z,1012.59
2019-02-27T07:46:10.595Z,1012.57
2019-02-27T07:47:10.646Z,1012.56
2019-02-27T07:48:10.550Z,1012.57
2019-02-27T07:49:10.577Z,1012.53
2019-02-27T07:50:10.554Z,1012.52
2019-02-27T07:51:10.512Z,1012.46
2019-02-27T07:52:10.502Z,1012.46
2019-02-27T07:53:10.524Z,1012.43
2019-02-27T07:54:10.502Z,1012.46
2019-02-27T07:55:20.986Z,1012.46
2019-02-27T07:56:11.461Z,1012.49
2019-02-27T07:57:10.608Z,1012.49
2019-02-27T07:58:10.668Z,1012.50
2019-02-27T07:59:10.425Z,1012.51
2019-02-27T08:00:14.979Z,1012.49
2019-02-27T08:01:10.408Z,1012.55
2019-02-27T08:02:10.398Z,1012.55
2019-02-27T08:03:13.004Z,1012.56
2019-02-27T08:04:10.377Z,1012.54
2019-02-27T08:05:10.359Z,1012.59
2019-02-27T08:06:10.374Z,1012.58
2019-02-27T08:07:12.384Z,1012.62
2019-02-27T08:08:10.331Z,1012.55
2019-02-27T08:09:10.323Z,1012.55
2019-02-27T08:10:10.679Z,1012.53
2019-02-27T08:11:13.113Z,1012.55
2019-02-27T08:12:10.307Z,1012.53
2019-02-27T08:13:10.273Z,1012.57
2019-02-27T08:14:10.278Z,1012.55
2019-02-27T08:15:10.865Z,1012.50
2019-02-27T08:16:10.246Z,1012.52
2019-02-27T08:17:17.234Z,1012.49
2019-02-27T08:18:11.262Z,1012.51
2019-02-27T08:19:11.551Z,1012.51
2019-02-27T08:20:10.215Z,1012.58
2019-02-27T08:21:10.213Z,1012.53
2019-02-27T08:22:10.218Z,1012.49
2019-02-27T08:23:10.166Z,1012.50
2019-02-27T08:24:10.155Z,1012.48
2019-02-27T08:25:10.142Z,1012.47
2019-02-27T08:26:10.151Z,1012.44
2019-02-27T08:27:10.394Z,1012.47
2019-02-27T08:28:10.118Z,1012.47
2019-02-27T08:29:10.107Z,1012.38
2019-02-27T08:30:10.097Z,1012.41
2019-02-27T08:31:10.098Z,1012.38
2019-02-27T08:32:10.069Z,1012.40
2019-02-27T08:33:10.059Z,1012.40
2019-02-27T08:34:10.068Z,1012.42
2019-02-27T08:35:10.044Z,1012.47
2019-02-27T08:36:10.380Z,1012.44
2019-02-27T08:37:10.300Z,1012.45
2019-02-27T08:38:10.137Z,1012.50
2019-02-27T08:39:10.049Z,1012.46
2019-02-27T08:40:09.987Z,1012.45
2019-02-27T08:41:10.002Z,1012.51
2019-02-27T08:42:10.195Z,1012.48
2019-02-27T08:43:10.915Z,1012.50
2019-02-27T08:44:12.290Z,1012.55
2019-02-27T08:45:18.934Z,1012.54
2019-02-27T08:46:10.937Z,1012.48
2019-02-27T08:47:10.314Z,1012.53
2019-02-27T08:48:10.123Z,1012.53
2019-02-27T08:49:09.965Z,1012.52
2019-02-27T08:50:09.881Z,1012.57
2019-02-27T08:51:09.934Z,1012.52
2019-02-27T08:52:09.904Z,1012.56
2019-02-27T08:53:10.391Z,1012.51
2019-02-27T08:54:09.991Z,1012.49
2019-02-27T08:55:18.842Z,1012.49
2019-02-27T08:56:12.379Z,1012.55
2019-02-27T08:57:10.019Z,1012.51
2019-02-27T08:58:09.797Z,1012.56
2019-02-27T08:59:09.808Z,1012.56
2019-02-27T09:00:14.225Z,1012.56
2019-02-27T09:01:11.011Z,1012.55
2019-02-27T09:02:09.787Z,1012.54
2019-02-27T09:03:19.749Z,1012.55
2019-02-27T09:04:12.228Z,1012.56
2019-02-27T09:05:09.710Z,1012.56
2019-02-27T09:06:09.721Z,1012.52
2019-02-27T09:07:09.777Z,1012.51
2019-02-27T09:08:10.175Z,1012.50
2019-02-27T09:09:09.685Z,1012.47
2019-02-27T09:10:09.847Z,1012.46
2019-02-27T09:11:09.810Z,1012.47
2019-02-27T09:12:13.153Z,1012.52
2019-02-27T09:13:09.780Z,1012.41
2019-02-27T09:14:11.962Z,1012.40
2019-02-27T09:15:10.182Z,1012.38
2019-02-27T09:16:09.609Z,1012.35
2019-02-27T09:17:09.774Z,1012.34
2019-02-27T09:18:09.748Z,1012.31
2019-02-27T09:19:10.146Z,1012.27
2019-02-27T09:20:09.746Z,1012.27
2019-02-27T09:21:09.839Z,1012.22
2019-02-27T09:22:10.014Z,1012.21
2019-02-27T09:23:09.557Z,1012.22
2019-02-27T09:24:09.537Z,1012.22
2019-02-27T09:25:09.580Z,1012.15
2019-02-27T09:26:09.701Z,1012.16
2019-02-27T09:27:09.512Z,1012.13
2019-02-27T09:28:10.061Z,1012.16
2019-02-27T09:29:09.478Z,1012.10
2019-02-27T09:30:09.443Z,1012.09
2019-02-27T09:31:09.439Z,1012.09
2019-02-27T09:32:11.682Z,1012.06
2019-02-27T09:33:10.110Z,1012.06
2019-02-27T09:34:09.447Z,1012.03
2019-02-27T09:35:09.417Z,1011.96
2019-02-27T09:36:10.294Z,1011.98
2019-02-27T09:37:09.479Z,1012.01
2019-02-27T09:38:09.466Z,1012.00
2019-02-27T09:39:09.351Z,1012.02
2019-02-27T09:40:09.390Z,1011.98
2019-02-27T09:41:12.173Z,1011.99
2019-02-27T09:42:09.314Z,1012.01
2019-02-27T09:43:09.339Z,1011.98
2019-02-27T09:44:09.298Z,1012.00
2019-02-27T09:45:11.088Z,1012.04
2019-02-27T09:46:09.275Z,1012.04
2019-02-27T09:47:09.388Z,1012.06
2019-02-27T09:48:09.387Z,1012.03
2019-02-27T09:49:09.252Z,1011.99
2019-02-27T09:50:09.237Z,1012.02
2019-02-27T09:51:09.801Z,1011.98
2019-02-27T09:52:09.256Z,1012.02
2019-02-27T09:53:09.267Z,1012.03
2019-02-27T09:54:11.074Z,1012.03
2019-02-27T09:55:09.223Z,1012.02
2019-02-27T09:56:09.266Z,1012.03
2019-02-27T09:57:09.217Z,1012.07
2019-02-27T09:58:11.107Z,1012.07
2019-02-27T09:59:09.185Z,1012.04
2019-02-27T10:00:09.213Z,1011.98
2019-02-27T10:01:09.113Z,1011.99
2019-02-27T10:02:12.321Z,1011.97
2019-02-27T10:03:09.087Z,1011.98
2019-02-27T10:04:09.736Z,1012.00
2019-02-27T10:05:09.106Z,1011.97
2019-02-27T10:06:09.417Z,1011.98
2019-02-27T10:07:09.060Z,1011.99
2019-02-27T10:08:09.101Z,1011.99
2019-02-27T10:09:09.029Z,1012.00
2019-02-27T10:10:10.433Z,1012.02
2019-02-27T10:11:09.078Z,1012.06
2019-02-27T10:12:09.061Z,1012.06
2019-02-27T10:13:09.147Z,1012.05
2019-02-27T10:14:08.972Z,1012.05
2019-02-27T10:15:08.958Z,1012.06
2019-02-27T10:16:08.949Z,1012.02
2019-02-27T10:17:09.286Z,1012.06
2019-02-27T10:18:08.966Z,1012.02
2019-02-27T10:19:08.915Z,1011.98
2019-02-27T10:20:08.935Z,1011.99
2019-02-27T10:21:09.396Z,1012.00
2019-02-27T10:22:08.878Z,1011.96
2019-02-27T10:23:08.919Z,1011.99
2019-02-27T10:24:08.872Z,1011.93
2019-02-27T10:25:09.536Z,1011.93
2019-02-27T10:26:08.838Z,1011.92
2019-02-27T10:27:08.825Z,1011.91
2019-02-27T10:28:10.656Z,1011.90
2019-02-27T10:29:10.939Z,1011.92
2019-02-27T10:30:11.536Z,1011.85
2019-02-27T10:31:08.789Z,1011.86
2019-02-27T10:32:08.768Z,1011.88
2019-02-27T10:33:11.175Z,1011.82
2019-02-27T10:34:08.762Z,1011.80
2019-02-27T10:35:08.740Z,1011.80
2019-02-27T10:36:10.642Z,1011.77
2019-02-27T10:37:12.923Z,1011.78
2019-02-27T10:38:09.727Z,1011.69
2019-02-27T10:39:08.694Z,1011.75
2019-02-27T10:40:11.342Z,1011.71
2019-02-27T10:41:08.673Z,1011.68
2019-02-27T10:42:08.678Z,1011.73
2019-02-27T10:43:08.655Z,1011.79
2019-02-27T10:44:08.713Z,1011.75
2019-02-27T10:45:10.111Z,1011.82
2019-02-27T10:46:08.638Z,1011.79
2019-02-27T10:47:08.611Z,1011.83
2019-02-27T10:48:08.622Z,1011.77
2019-02-27T10:49:08.590Z,1011.76
2019-02-27T10:50:08.582Z,1011.86
2019-02-27T10:51:09.452Z,1011.86
2019-02-27T10:52:08.565Z,1011.84
2019-02-27T10:53:08.591Z,1011.84
2019-02-27T10:54:08.571Z,1011.85
2019-02-27T10:55:11.380Z,1011.84
2019-02-27T10:56:09.507Z,1011.85
2019-02-27T10:57:08.570Z,1011.80
2019-02-27T10:58:12.601Z,1011.78
2019-02-27T10:59:08.563Z,1011.78
2019-02-27T11:00:08.473Z,1011.71
2019-02-27T11:01:08.523Z,1011.78
2019-02-27T11:02:09.725Z,1011.68
2019-02-27T11:03:08.452Z,1011.63
2019-02-27T11:04:08.452Z,1011.61
2019-02-27T11:05:08.418Z,1011.65
2019-02-27T11:06:08.405Z,1011.65
2019-02-27T11:07:08.392Z,1011.61
2019-02-27T11:08:08.382Z,1011.65
2019-02-27T11:09:08.390Z,1011.69
2019-02-27T11:10:08.361Z,1011.65
2019-02-27T11:11:08.815Z,1011.63
2019-02-27T11:12:08.349Z,1011.63
2019-02-27T11:13:08.342Z,1011.61
2019-02-27T11:14:08.348Z,1011.58
2019-02-27T11:15:08.327Z,1011.55
2019-02-27T11:16:08.295Z,1011.56
2019-02-27T11:17:08.292Z,1011.51
2019-02-27T11:18:08.282Z,1011.55
2019-02-27T11:19:08.263Z,1011.48
2019-02-27T11:20:08.268Z,1011.45
2019-02-27T11:21:08.239Z,1011.40
2019-02-27T11:22:08.231Z,1011.36
2019-02-27T11:23:08.222Z,1011.36
2019-02-27T11:24:08.232Z,1011.30
2019-02-27T11:25:08.202Z,1011.29
2019-02-27T11:26:08.230Z,1011.26
2019-02-27T11:27:08.179Z,1011.21
2019-02-27T11:28:08.163Z,1011.24
2019-02-27T11:29:08.171Z,1011.18
2019-02-27T11:30:08.161Z,1011.22
2019-02-27T11:31:08.429Z,1011.14
2019-02-27T11:32:08.154Z,1011.13
2019-02-27T11:33:08.110Z,1011.18
2019-02-27T11:34:08.498Z,1011.15
2019-02-27T11:35:08.103Z,1011.13
2019-02-27T11:36:08.109Z,1011.13
2019-02-27T11:37:12.849Z,1011.14
2019-02-27T11:38:09.058Z,1011.07
2019-02-27T11:39:08.059Z,1011.01
2019-02-27T11:40:08.459Z,1010.99
2019-02-27T11:41:08.083Z,1010.99
2019-02-27T11:42:08.103Z,1010.95
2019-02-27T11:43:08.111Z,1010.95
2019-02-27T11:44:08.067Z,1010.91
2019-02-27T11:45:08.015Z,1010.92
2019-02-27T11:46:07.976Z,1010.85
2019-02-27T11:47:11.000Z,1010.83
2019-02-27T11:48:07.952Z,1010.86
2019-02-27T11:49:07.976Z,1010.87
2019-02-27T11:50:07.932Z,1010.81
2019-02-27T11:51:07.922Z,1010.76
2019-02-27T11:52:07.979Z,1010.74
2019-02-27T11:53:07.894Z,1010.69
2019-02-27T11:54:09.063Z,1010.69
2019-02-27T11:55:07.878Z,1010.73
2019-02-27T11:56:07.872Z,1010.69
2019-02-27T11:57:07.858Z,1010.65
2019-02-27T11:58:07.847Z,1010.67
2019-02-27T11:59:10.289Z,1010.64
2019-02-27T12:00:07.842Z,1010.64
2019-02-27T12:01:07.810Z,1010.65
2019-02-27T12:02:07.816Z,1010.65
2019-02-27T12:03:08.632Z,1010.58
2019-02-27T12:04:07.800Z,1010.53
2019-02-27T12:05:07.857Z,1010.54